Time;durP1;ratioP1;P1;durP2;ratioP2;P2;SDS_P1;SDS_P2;PMS_P1;PMS_P2;Temp;Humidity;BMP_temperature;BMP_pressure;BME280_temperature;BME280_humidity;BME280_pressure;Samples;Min_cycle;Max_cycle;Signal;HPM_P1;HPM_P2
2024/02/06 00:02:00;;;;;;;18.10;7.70;;;;;;;7.19;100.00;99418.20;106645;1262;95851;-82
2024/02/06 00:04:46;;;;;;;17.70;9.30;;;;;;;7.20;100.00;99412.64;106619;1262;95882;-81
2024/02/06 00:07:31;;;;;;;21.60;10.00;;;;;;;7.21;100.00;99413.38;106705;1262;100634;-80
2024/02/06 00:10:16;;;;;;;20.10;8.40;;;;;;;7.22;100.00;99413.06;106749;1261;100409;-81
2024/02/06 00:13:02;;;;;;;20.10;9.20;;;;;;;7.22;100.00;99408.42;106516;1264;99248;-80
2024/02/06 00:15:48;;;;;;;17.80;7.80;;;;;;;7.23;100.00;99415.04;106525;1262;96593;-80
2024/02/06 00:18:33;;;;;;;21.60;8.90;;;;;;;7.24;100.00;99415.09;106717;1261;97741;-80
2024/02/06 00:21:19;;;;;;;21.10;9.60;;;;;;;7.25;100.00;99412.55;106257;1262;100077;-79
2024/02/06 00:24:04;;;;;;;24.80;9.20;;;;;;;7.25;100.00;99418.08;106313;1262;99082;-81
2024/02/06 00:26:50;;;;;;;23.00;11.00;;;;;;;7.25;100.00;99421.27;106113;1262;97850;-78
2024/02/06 00:29:36;;;;;;;27.10;14.50;;;;;;;7.25;100.00;99423.41;105905;1264;96468;-79
2024/02/06 00:32:21;;;;;;;20.30;10.30;;;;;;;7.25;100.00;99422.55;105918;1260;97157;-79
2024/02/06 00:35:07;;;;;;;24.10;10.00;;;;;;;7.25;100.00;99423.04;105876;1264;100107;-78
2024/02/06 00:37:55;;;;;;;27.30;11.60;;;;;;;7.24;100.00;99416.92;105838;1262;99068;-79
2024/02/06 00:40:40;;;;;;;21.50;11.90;;;;;;;7.24;100.00;99408.57;105872;1262;98546;-79
2024/02/06 00:43:27;;;;;;;18.90;10.40;;;;;;;7.24;100.00;99405.58;105618;1260;97165;-79
2024/02/06 00:46:12;;;;;;;21.40;10.30;;;;;;;7.23;100.00;99403.73;105811;1262;98042;-80
2024/02/06 00:48:58;;;;;;;25.70;10.70;;;;;;;7.24;100.00;99411.36;106006;1262;100008;-79
2024/02/06 00:51:44;;;;;;;21.20;10.70;;;;;;;7.25;100.00;99404.35;105899;1262;99156;-80
2024/02/06 00:54:29;;;;;;;23.10;10.50;;;;;;;7.26;100.00;99406.58;105872;1260;99350;-80
2024/02/06 00:57:14;;;;;;;23.20;11.50;;;;;;;7.27;100.00;99404.94;105946;1260;97446;-79
2024/02/06 01:00:00;;;;;;;20.40;9.30;;;;;;;7.28;100.00;99407.70;106148;1263;97144;-80
2024/02/06 01:02:46;;;;;;;23.60;10.70;;;;;;;7.29;100.00;99402.38;105979;1264;100036;-80
2024/02/06 01:05:31;;;;;;;20.50;9.70;;;;;;;7.31;100.00;99400.05;105952;1262;101138;-80
2024/02/06 01:08:17;;;;;;;21.70;10.60;;;;;;;7.32;100.00;99402.76;106004;1267;97735;-80
2024/02/06 01:11:03;;;;;;;25.60;9.80;;;;;;;7.33;100.00;99392.33;106039;1260;96616;-80
2024/02/06 01:13:51;;;;;;;19.40;9.50;;;;;;;7.34;100.00;99396.59;105975;1261;96727;-80
2024/02/06 01:16:36;;;;;;;23.10;9.00;;;;;;;7.35;100.00;99398.56;105934;1265;100667;-79
2024/02/06 01:19:22;;;;;;;15.90;8.60;;;;;;;7.37;100.00;99399.27;106611;1264;99140;-79
2024/02/06 01:22:07;;;;;;;23.00;8.70;;;;;;;7.38;100.00;99399.98;106104;1262;98660;-79
2024/02/06 01:24:54;;;;;;;18.00;9.10;;;;;;;7.40;100.00;99398.67;105964;1262;96611;-79
2024/02/06 01:27:39;;;;;;;18.20;8.40;;;;;;;7.43;100.00;99399.59;105934;1267;96643;-79
2024/02/06 01:30:25;;;;;;;21.30;8.90;;;;;;;7.44;100.00;99397.80;106663;1261;101366;-79
2024/02/06 01:33:10;;;;;;;17.80;7.90;;;;;;;7.45;100.00;99392.02;106572;1260;99115;-80
2024/02/06 01:35:56;;;;;;;14.30;7.70;;;;;;;7.47;100.00;99394.08;106478;1262;97783;-80
2024/02/06 01:38:41;;;;;;;16.30;7.90;;;;;;;7.48;100.00;99399.02;105998;1263;96698;-79
2024/02/06 01:41:27;;;;;;;17.10;7.70;;;;;;;7.49;100.00;99403.49;106561;1264;95845;-81
2024/02/06 01:44:12;;;;;;;13.90;7.50;;;;;;;7.50;100.00;99400.71;106303;1260;101410;-79
2024/02/06 01:46:58;;;;;;;20.00;8.20;;;;;;;7.51;100.00;99399.77;106037;1261;99171;-80
2024/02/06 01:49:44;;;;;;;15.00;8.00;;;;;;;7.51;100.00;99397.59;106018;1261;99034;-79
2024/02/06 01:52:30;;;;;;;15.40;7.90;;;;;;;7.52;100.00;99393.67;106022;1262;96720;-79
2024/02/06 01:55:16;;;;;;;20.80;7.00;;;;;;;7.54;100.00;99392.77;106399;1262;96639;-79
2024/02/06 01:58:05;;;;;;;14.10;7.40;;;;;;;7.55;100.00;99389.54;105933;1264;100079;-79
2024/02/06 02:00:50;;;;;;;16.90;6.80;;;;;;;7.57;100.00;99387.80;106028;1264;99232;-80
2024/02/06 02:03:36;;;;;;;11.70;6.10;;;;;;;7.58;100.00;99389.97;106133;1264;97810;-80
2024/02/06 02:06:24;;;;;;;11.10;5.70;;;;;;;7.60;100.00;99389.32;106141;1264;96632;-80
2024/02/06 02:09:09;;;;;;;9.90;4.80;;;;;;;7.62;100.00;99391.23;105944;1261;96714;-79
2024/02/06 02:11:55;;;;;;;11.50;5.30;;;;;;;7.64;100.00;99386.65;106027;1262;100152;-79
2024/02/06 02:14:41;;;;;;;10.40;3.70;;;;;;;7.67;100.00;99378.88;105993;1264;100553;-80
2024/02/06 02:17:26;;;;;;;10.90;3.80;;;;;;;7.70;100.00;99378.27;106320;1262;97882;-80
2024/02/06 02:20:12;;;;;;;7.00;3.20;;;;;;;7.73;100.00;99378.37;106038;1265;96546;-79
2024/02/06 02:22:57;;;;;;;8.10;3.10;;;;;;;7.75;100.00;99375.06;106069;1265;97064;-80
2024/02/06 02:25:43;;;;;;;7.20;2.80;;;;;;;7.78;100.00;99378.46;106056;1262;100829;-79
2024/02/06 02:28:29;;;;;;;6.20;2.70;;;;;;;7.80;100.00;99382.77;105986;1264;99169;-80
2024/02/06 02:31:15;;;;;;;5.50;2.80;;;;;;;7.81;100.00;99382.09;106035;1264;97885;-79
2024/02/06 02:34:01;;;;;;;6.30;3.00;;;;;;;7.85;100.00;99382.02;105982;1264;96744;-80
2024/02/06 02:36:46;;;;;;;7.30;2.70;;;;;;;7.87;100.00;99385.67;106340;1260;97172;-80
2024/02/06 02:39:32;;;;;;;9.40;2.90;;;;;;;7.89;100.00;99387.36;105639;1263;100870;-80
2024/02/06 02:42:18;;;;;;;3.30;2.40;;;;;;;7.91;100.00;99386.23;106048;1262;100326;-79
2024/02/06 02:45:03;;;;;;;6.00;1.80;;;;;;;7.93;100.00;99389.48;106090;1260;99058;-79
2024/02/06 02:47:49;;;;;;;5.50;2.40;;;;;;;7.95;100.00;99391.13;106015;1264;96515;-80
2024/02/06 02:50:34;;;;;;;7.20;2.30;;;;;;;7.97;100.00;99386.09;105999;1261;96503;-80
2024/02/06 02:53:20;;;;;;;5.10;2.50;;;;;;;7.99;100.00;99382.83;106142;1264;100788;-80
2024/02/06 02:56:06;;;;;;;3.40;2.00;;;;;;;8.00;100.00;99383.69;106060;1264;100372;-81
2024/02/06 02:58:52;;;;;;;7.20;2.20;;;;;;;8.02;100.00;99380.27;106139;1264;97933;-80
2024/02/06 03:01:38;;;;;;;5.30;1.80;;;;;;;8.03;100.00;99383.15;105998;1262;97212;-80
2024/02/06 03:04:24;;;;;;;3.40;2.00;;;;;;;8.04;100.00;99384.15;106014;1264;98453;-79
2024/02/06 03:07:10;;;;;;;5.30;2.50;;;;;;;8.05;100.00;99374.76;106000;1264;100135;-79
2024/02/06 03:09:55;;;;;;;5.10;2.10;;;;;;;8.06;100.00;99375.81;106051;1262;98997;-80
2024/02/06 03:12:41;;;;;;;7.40;2.50;;;;;;;8.06;100.00;99377.60;106004;1262;97768;-80
2024/02/06 03:15:26;;;;;;;3.70;2.30;;;;;;;8.05;100.00;99374.55;105919;1264;96553;-79
2024/02/06 03:18:12;;;;;;;6.10;2.70;;;;;;;8.04;100.00;99374.02;106012;1262;96543;-79
2024/02/06 03:20:57;;;;;;;5.10;2.20;;;;;;;8.04;100.00;99379.05;105785;1266;100002;-80
2024/02/06 03:23:43;;;;;;;5.70;2.20;;;;;;;8.04;100.00;99377.13;105941;1262;100625;-80
2024/02/06 03:26:29;;;;;;;7.50;2.20;;;;;;;8.04;100.00;99383.58;105945;1264;97798;-80
2024/02/06 03:29:14;;;;;;;4.90;2.20;;;;;;;8.05;100.00;99376.20;106033;1261;97852;-79
2024/02/06 03:32:00;;;;;;;4.70;3.60;;;;;;;8.06;100.00;99375.33;106019;1264;98634;-80
2024/02/06 03:34:46;;;;;;;8.50;3.80;;;;;;;8.06;100.00;99372.95;106019;1264;100055;-80
2024/02/06 03:37:31;;;;;;;7.40;3.00;;;;;;;8.06;100.00;99372.98;105916;1261;99180;-80
2024/02/06 03:40:17;;;;;;;4.60;2.70;;;;;;;8.07;100.00;99370.79;105916;1264;98998;-79
2024/02/06 03:43:03;;;;;;;5.00;2.30;;;;;;;8.07;100.00;99369.27;106010;1267;96653;-80
2024/02/06 03:45:49;;;;;;;8.20;2.60;;;;;;;8.08;100.00;99366.48;105970;1264;95943;-80
2024/02/06 03:48:35;;;;;;;6.60;3.10;;;;;;;8.09;100.00;99362.92;99497;1264;10001762;-79
2024/02/06 03:51:21;;;;;;;8.50;3.00;;;;;;;8.11;100.00;99362.55;105881;1264;97807;-79
2024/02/06 03:54:07;;;;;;;6.80;3.10;;;;;;;8.12;100.00;99363.50;105928;1264;95821;-80
2024/02/06 03:56:53;;;;;;;8.20;2.80;;;;;;;8.13;100.00;99361.40;106055;1264;96492;-79
2024/02/06 03:59:39;;;;;;;5.50;3.00;;;;;;;8.13;100.00;99364.90;105974;1269;100013;-80
2024/02/06 04:02:25;;;;;;;7.40;3.00;;;;;;;8.13;100.00;99361.77;106036;1264;100459;-80
2024/02/06 04:05:11;;;;;;;9.90;3.50;;;;;;;8.13;100.00;99365.84;105952;1264;97719;-80
2024/02/06 04:07:56;;;;;;;7.60;4.00;;;;;;;8.13;100.00;99365.84;105895;1264;96836;-79
2024/02/06 04:10:42;;;;;;;8.40;4.70;;;;;;;8.12;100.00;99360.42;105690;1267;96941;-80
2024/02/06 04:13:28;;;;;;;9.50;4.30;;;;;;;8.13;100.00;99358.73;105928;1264;100745;-79
2024/02/06 04:16:14;;;;;;;11.90;5.90;;;;;;;8.13;100.00;99360.34;105971;1264;99132;-80
2024/02/06 04:19:00;;;;;;;7.90;3.90;;;;;;;8.13;100.00;99363.70;106066;1265;100049;-80
2024/02/06 04:21:45;;;;;;;11.00;4.40;;;;;;;8.14;100.00;99362.02;106027;1264;96571;-81
2024/02/06 04:24:31;;;;;;;10.60;4.60;;;;;;;8.14;100.00;99361.20;105874;1264;96537;-80
2024/02/06 04:27:18;;;;;;;11.50;4.70;;;;;;;8.15;100.00;99363.63;106046;1264;100216;-80
2024/02/06 04:30:04;;;;;;;9.80;6.00;;;;;;;8.15;100.00;99368.30;106046;1264;100272;-80
2024/02/06 04:32:53;;;;;;;9.60;4.20;;;;;;;8.14;100.00;99361.04;106338;1267;99163;-79
2024/02/06 04:35:38;;;;;;;8.60;5.10;;;;;;;8.15;100.00;99354.59;106301;1262;96608;-80
2024/02/06 04:38:24;;;;;;;8.80;5.40;;;;;;;8.15;100.00;99354.23;106410;1264;96522;-80
2024/02/06 04:41:09;;;;;;;8.00;5.90;;;;;;;8.15;100.00;99358.86;106407;1266;100873;-80
2024/02/06 04:43:54;;;;;;;9.10;5.90;;;;;;;8.15;100.00;99358.09;106479;1264;99202;-79
2024/02/06 04:46:40;;;;;;;9.70;5.80;;;;;;;8.15;100.00;99355.83;106440;1264;97798;-80
2024/02/06 04:49:26;;;;;;;9.20;5.80;;;;;;;8.14;100.00;99354.14;105974;1267;97875;-79
2024/02/06 04:52:13;;;;;;;10.00;5.80;;;;;;;8.13;100.00;99350.90;105976;1265;98086;-79
2024/02/06 04:54:59;;;;;;;11.60;6.30;;;;;;;8.12;100.00;99350.53;107106;1260;101325;-79
2024/02/06 04:57:44;;;;;;;12.20;7.60;;;;;;;8.11;100.00;99349.21;105935;1260;99838;-80
2024/02/06 05:00:30;;;;;;;12.40;7.70;;;;;;;8.09;100.00;99352.00;105918;1265;98736;-80
2024/02/06 05:03:16;;;;;;;16.40;7.70;;;;;;;8.07;100.00;99349.98;105954;1266;96657;-79
2024/02/06 05:06:02;;;;;;;15.30;8.80;;;;;;;8.03;100.00;99347.42;105536;1265;98338;-79
2024/02/06 05:08:48;;;;;;;14.60;9.00;;;;;;;7.99;100.00;99345.86;105678;1266;100819;-79
2024/02/06 05:11:33;;;;;;;14.30;9.20;;;;;;;7.96;100.00;99341.05;106008;1260;99089;-80
2024/02/06 05:14:19;;;;;;;20.10;11.90;;;;;;;7.94;100.00;99335.34;105924;1265;97724;-78
2024/02/06 05:17:05;;;;;;;14.70;9.70;;;;;;;7.91;100.00;99332.16;105878;1260;97132;-79
2024/02/06 05:19:50;;;;;;;21.30;10.10;;;;;;;7.89;100.00;99332.25;106060;1261;97071;-80
2024/02/06 05:22:39;;;;;;;15.40;11.60;;;;;;;7.87;100.00;99334.66;105952;1265;101364;-79
2024/02/06 05:25:24;;;;;;;17.70;10.40;;;;;;;7.85;100.00;99332.56;106003;1261;100440;-79
2024/02/06 05:28:10;;;;;;;19.40;10.20;;;;;;;7.82;100.00;99329.23;106014;1265;99012;-80
2024/02/06 05:30:56;;;;;;;18.70;9.70;;;;;;;7.80;100.00;99325.33;105887;1268;97514;-80
2024/02/06 05:33:41;;;;;;;16.60;9.50;;;;;;;7.79;100.00;99328.11;106091;1264;96512;-79
2024/02/06 05:36:27;;;;;;;26.10;10.20;;;;;;;7.78;100.00;99328.59;106002;1266;100220;-81
2024/02/06 05:39:13;;;;;;;14.60;9.10;;;;;;;7.77;100.00;99324.91;106029;1260;100466;-80
2024/02/06 05:41:58;;;;;;;14.40;8.60;;;;;;;7.75;100.00;99324.29;105869;1267;97797;-80
2024/02/06 05:44:44;;;;;;;16.00;9.60;;;;;;;7.74;100.00;99324.61;105983;1266;96730;-80
2024/02/06 05:47:29;;;;;;;16.40;9.70;;;;;;;7.73;100.00;99324.73;105882;1263;97814;-80
2024/02/06 05:50:15;;;;;;;14.50;9.40;;;;;;;7.72;100.00;99320.77;105999;1261;101307;-79
2024/02/06 05:53:01;;;;;;;18.60;10.80;;;;;;;7.70;100.00;99321.55;106409;1266;100992;-80
2024/02/06 05:55:46;;;;;;;16.90;9.90;;;;;;;7.69;100.00;99319.21;106471;1265;97728;-80
2024/02/06 05:58:32;;;;;;;17.60;10.50;;;;;;;7.67;100.00;99321.91;105830;1260;97221;-81
2024/02/06 06:01:17;;;;;;;18.40;11.30;;;;;;;7.66;100.00;99316.98;105842;1266;97175;-79
2024/02/06 06:04:03;;;;;;;21.90;11.60;;;;;;;7.65;100.00;99317.31;105871;1275;100060;-79
2024/02/06 06:06:48;;;;;;;19.20;11.00;;;;;;;7.64;100.00;99317.59;105959;1261;99095;-80
2024/02/06 06:09:34;;;;;;;20.80;14.90;;;;;;;7.63;100.00;99318.25;106420;1266;97836;-79
2024/02/06 06:12:19;;;;;;;28.20;16.50;;;;;;;7.62;100.00;99318.54;106284;1264;96627;-80
2024/02/06 06:15:05;;;;;;;25.80;15.20;;;;;;;7.62;100.00;99320.83;106313;1260;97077;-79
2024/02/06 06:17:50;;;;;;;21.70;12.80;;;;;;;7.60;100.00;99325.28;106391;1264;100067;-80
2024/02/06 06:20:36;;;;;;;19.90;10.90;;;;;;;7.60;100.00;99322.17;106370;1262;99134;-80
2024/02/06 06:23:21;;;;;;;21.70;11.00;;;;;;;7.59;100.00;99319.09;105911;1274;97815;-80
2024/02/06 06:26:07;;;;;;;17.60;11.20;;;;;;;7.58;100.00;99323.81;105922;1264;96553;-79
2024/02/06 06:28:53;;;;;;;17.40;11.50;;;;;;;7.59;100.00;99326.27;105862;1265;96415;-80
2024/02/06 06:31:38;;;;;;;15.80;11.00;;;;;;;7.60;100.00;99332.88;105902;1265;100052;-80
2024/02/06 06:34:24;;;;;;;16.00;11.30;;;;;;;7.60;100.00;99326.93;105783;1267;99187;-80
2024/02/06 06:37:10;;;;;;;19.20;11.80;;;;;;;7.60;100.00;99328.08;105785;1264;99006;-79
2024/02/06 06:39:56;;;;;;;18.30;11.00;;;;;;;7.59;100.00;99322.94;105772;1267;96567;-80
2024/02/06 06:42:41;;;;;;;18.80;10.80;;;;;;;7.59;100.00;99324.42;105816;1266;97088;-80
2024/02/06 06:45:27;;;;;;;23.20;11.10;;;;;;;7.59;100.00;99331.06;105925;1266;100684;-80
2024/02/06 06:48:13;;;;;;;19.50;10.70;;;;;;;7.58;100.00;99342.46;105911;1260;100005;-80
2024/02/06 06:50:59;;;;;;;16.60;10.80;;;;;;;7.57;100.00;99339.98;105869;1267;97775;-79
2024/02/06 06:53:45;;;;;;;20.20;10.80;;;;;;;7.55;100.00;99333.09;105838;1260;97218;-79
2024/02/06 06:56:31;;;;;;;20.80;10.10;;;;;;;7.54;100.00;99329.96;105879;1260;96576;-79
2024/02/06 06:59:16;;;;;;;17.90;11.30;;;;;;;7.53;100.00;99336.61;105825;1265;100108;-79
2024/02/06 07:02:03;;;;;;;17.70;10.90;;;;;;;7.53;100.00;99336.81;106076;1261;99153;-80
2024/02/06 07:04:49;;;;;;;18.30;11.30;;;;;;;7.52;100.00;99335.63;106497;1260;97705;-79
2024/02/06 07:07:35;;;;;;;23.40;12.40;;;;;;;7.52;100.00;99336.23;105765;1267;96826;-79
2024/02/06 07:10:20;;;;;;;23.80;12.40;;;;;;;7.50;100.00;99334.63;105645;1264;98297;-80
2024/02/06 07:13:06;;;;;;;20.10;10.80;;;;;;;7.49;100.00;99333.85;106018;1260;100058;-82
2024/02/06 07:15:51;;;;;;;18.50;12.60;;;;;;;7.50;100.00;99332.01;105949;1267;99047;-79
2024/02/06 07:18:37;;;;;;;20.10;12.40;;;;;;;7.51;100.00;99331.52;106143;1260;367515;-81
2024/02/06 07:21:22;;;;;;;21.40;13.00;;;;;;;7.52;100.00;99326.56;106045;1260;96627;-80
2024/02/06 07:24:08;;;;;;;34.50;16.40;;;;;;;7.54;100.00;99326.48;105362;1267;97236;-78
2024/02/06 07:26:53;;;;;;;22.90;15.30;;;;;;;7.56;100.00;99325.71;105788;1267;99959;-79
2024/02/06 07:29:39;;;;;;;19.70;14.40;;;;;;;7.58;100.00;99327.73;106027;1261;100067;-79
2024/02/06 07:32:24;;;;;;;21.70;11.80;;;;;;;7.60;100.00;99330.45;106367;1260;98779;-79
2024/02/06 07:35:10;;;;;;;17.00;11.70;;;;;;;7.63;100.00;99331.11;105847;1260;96625;-80
2024/02/06 07:37:55;;;;;;;18.00;11.60;;;;;;;7.66;100.00;99329.33;106248;1267;97116;-80
2024/02/06 07:40:41;;;;;;;18.30;9.80;;;;;;;7.68;100.00;99332.30;106249;1262;100009;-80
2024/02/06 07:43:28;;;;;;;19.60;10.90;;;;;;;7.71;100.00;99332.83;106150;1266;100261;-80
2024/02/06 07:46:14;;;;;;;15.80;9.60;;;;;;;7.73;100.00;99333.00;106073;1260;98483;-79
2024/02/06 07:48:59;;;;;;;18.80;9.40;;;;;;;7.76;100.00;99332.85;105950;1261;97554;-80
2024/02/06 07:51:46;;;;;;;14.80;8.60;;;;;;;7.78;100.00;99334.66;106050;1267;97089;-80
2024/02/06 07:54:32;;;;;;;16.30;9.50;;;;;;;7.79;100.00;99339.52;106019;1260;100117;-80
2024/02/06 07:57:18;;;;;;;20.70;10.10;;;;;;;7.80;100.00;99340.48;106154;1265;99090;-80
2024/02/06 08:00:04;;;;;;;12.90;8.00;;;;;;;7.80;100.00;99332.26;106231;1266;97796;-80
2024/02/06 08:02:52;;;;;;;26.60;14.20;;;;;;;7.81;100.00;99332.71;106168;1260;96667;-85
2024/02/06 08:05:38;;;;;;;24.60;13.10;;;;;;;7.82;100.00;99337.39;106058;1260;97558;-81
2024/02/06 08:08:24;;;;;;;45.60;21.70;;;;;;;7.83;100.00;99337.27;105956;1260;100209;-86
2024/02/06 08:11:10;;;;;;;23.10;12.30;;;;;;;7.85;100.00;99334.05;106059;1260;101338;-85
2024/02/06 08:13:56;;;;;;;19.30;10.60;;;;;;;7.85;100.00;99335.55;107954;1260;99004;-83
2024/02/06 08:16:42;;;;;;;18.80;9.60;;;;;;;7.85;100.00;99335.77;106009;1266;96715;-88
2024/02/06 08:19:30;;;;;;;18.00;10.80;;;;;;;7.86;100.00;99336.75;105887;1267;96508;-83
2024/02/06 08:22:15;;;;;;;14.20;9.10;;;;;;;7.86;100.00;99337.31;106076;1266;101382;-78
2024/02/06 08:25:01;;;;;;;18.50;9.40;;;;;;;7.85;100.00;99338.59;105936;1261;101313;-83
2024/02/06 08:27:47;;;;;;;14.90;7.80;;;;;;;7.86;100.00;99331.61;105799;1263;98509;-82
2024/02/06 08:30:32;;;;;;;12.80;7.30;;;;;;;7.87;100.00;99336.14;105967;1264;97157;-82
2024/02/06 08:33:18;;;;;;;21.00;12.80;;;;;;;7.87;100.00;99335.37;106137;1266;96613;-80
2024/02/06 08:36:04;;;;;;;14.80;7.90;;;;;;;7.87;100.00;99327.73;106170;1264;101343;-83
2024/02/06 08:38:50;;;;;;;9.90;6.80;;;;;;;7.87;100.00;99332.31;106067;1261;100385;-86
2024/02/06 08:41:36;;;;;;;11.40;6.50;;;;;;;7.88;100.00;99337.82;105895;1266;99071;-81
2024/02/06 08:44:22;;;;;;;14.20;8.50;;;;;;;7.89;100.00;99333.11;106082;1267;96468;-85
2024/02/06 08:47:08;;;;;;;9.70;6.50;;;;;;;7.90;100.00;99339.76;105869;1267;97286;-86
2024/02/06 08:49:54;;;;;;;10.10;7.10;;;;;;;7.91;100.00;99341.61;105811;1261;99960;-86
2024/02/06 08:52:43;;;;;;;15.70;7.90;;;;;;;7.92;100.00;99345.38;106400;1267;100193;-82
2024/02/06 08:55:28;;;;;;;12.20;7.40;;;;;;;7.94;100.00;99342.80;106465;1267;97778;-81
2024/02/06 08:58:14;;;;;;;12.30;7.50;;;;;;;7.95;100.00;99343.33;106378;1264;95889;-81
2024/02/06 09:00:59;;;;;;;11.80;8.00;;;;;;;7.95;100.00;99343.70;106752;1264;96631;-82
2024/02/06 09:03:45;;;;;;;12.30;8.10;;;;;;;7.94;100.00;99342.75;106526;1260;100053;-81
2024/02/06 09:06:30;;;;;;;18.80;10.20;;;;;;;7.94;100.00;99338.85;106218;1264;99101;-80
2024/02/06 09:09:18;;;;;;;17.70;10.90;;;;;;;7.94;100.00;99336.23;106445;1261;97747;-80
2024/02/06 09:12:04;;;;;;;17.00;11.10;;;;;;;7.96;100.00;99341.66;106380;1260;96631;-80
2024/02/06 09:14:49;;;;;;;18.50;12.10;;;;;;;7.97;100.00;99338.27;106287;1260;95866;-81
2024/02/06 09:17:36;;;;;;;14.10;10.00;;;;;;;7.99;100.00;99331.00;106236;1261;100699;-82
2024/02/06 09:20:22;;;;;;;17.90;8.80;;;;;;;8.02;100.00;99326.79;106362;1264;100491;-80
2024/02/06 09:23:07;;;;;;;13.70;8.40;;;;;;;8.06;100.00;99328.55;106180;1267;99003;-78
2024/02/06 09:25:53;;;;;;;13.20;7.70;;;;;;;8.09;100.00;99326.84;105799;1264;96636;-80
2024/02/06 09:28:38;;;;;;;10.60;6.20;;;;;;;8.13;100.00;99323.61;106420;1261;97244;-80
2024/02/06 09:31:25;;;;;;;11.70;6.20;;;;;;;8.15;100.00;99328.91;106271;1264;101264;-82
2024/02/06 09:34:11;;;;;;;11.70;6.50;;;;;;;8.17;100.00;99334.92;106446;1260;99147;-82
2024/02/06 09:36:56;;;;;;;12.90;6.30;;;;;;;8.18;100.00;99338.23;106340;1260;97803;-81
2024/02/06 09:39:42;;;;;;;11.00;6.90;;;;;;;8.20;100.00;99334.14;106423;1261;96774;-80
2024/02/06 09:42:28;;;;;;;9.40;5.80;;;;;;;8.21;100.00;99336.11;106437;1260;97062;-81
2024/02/06 09:45:15;;;;;;;13.20;5.80;;;;;;;8.23;100.00;99339.05;106113;1261;100027;-81
2024/02/06 09:48:00;;;;;;;13.20;6.20;;;;;;;8.25;100.00;99335.48;106282;1262;99247;-81
2024/02/06 09:50:47;;;;;;;11.00;6.50;;;;;;;8.26;100.00;99335.45;106350;1260;98471;-80
2024/02/06 09:53:33;;;;;;;15.50;8.20;;;;;;;8.28;100.00;99336.98;106350;1267;96605;-80
2024/02/06 09:56:20;;;;;;;12.00;7.60;;;;;;;8.29;100.00;99332.22;106347;1260;97182;-80
2024/02/06 09:59:06;;;;;;;13.50;7.40;;;;;;;8.30;100.00;99334.89;106282;1261;100061;-80
2024/02/06 10:01:54;;;;;;;9.30;6.60;;;;;;;8.32;100.00;99337.02;106396;1261;99142;-80
2024/02/06 10:04:40;;;;;;;12.80;6.20;;;;;;;8.33;100.00;99333.86;105782;1264;97966;-81
2024/02/06 10:07:26;;;;;;;9.20;6.50;;;;;;;8.34;100.00;99335.98;105811;1265;97660;-80
2024/02/06 10:10:12;;;;;;;11.90;7.70;;;;;;;8.35;100.00;99329.64;106400;1260;96673;-79
2024/02/06 10:12:59;;;;;;;15.10;8.30;;;;;;;8.35;100.00;99332.64;105672;1260;100000;-81
2024/02/06 10:15:45;;;;;;;11.50;7.10;;;;;;;8.36;100.00;99333.46;105574;1260;100617;-78
2024/02/06 10:18:30;;;;;;;16.60;10.00;;;;;;;8.37;100.00;99333.83;105926;1260;97790;-80
2024/02/06 10:21:17;;;;;;;10.00;6.10;;;;;;;8.37;100.00;99327.88;105763;1264;96730;-79
2024/02/06 10:24:04;;;;;;;15.70;8.30;;;;;;;8.37;100.00;99332.73;105903;1266;98341;-80
2024/02/06 10:27:00;;;;;;;24.80;16.20;;;;;;;8.37;100.00;99333.46;105707;1260;101271;-79
2024/02/06 10:29:57;;;;;;;13.50;9.20;;;;;;;8.38;100.00;99326.12;106019;1262;99196;-80
2024/02/06 10:32:42;;;;;;;13.70;9.50;;;;;;;8.38;100.00;99325.16;105573;1264;99105;-83
2024/02/06 10:35:31;;;;;;;14.10;8.30;;;;;;;8.39;100.00;99320.94;106077;1260;96628;-84
2024/02/06 10:38:17;;;;;;;20.60;10.70;;;;;;;8.39;100.00;99324.09;106129;1267;96750;-84
2024/02/06 10:41:08;;;;;;;9.90;6.50;;;;;;;8.39;100.00;99314.83;106109;1261;100056;-83
2024/02/06 10:43:54;;;;;;;12.10;6.30;;;;;;;8.41;100.00;99310.67;106160;1264;99375;-85
2024/02/06 10:46:40;;;;;;;12.20;7.40;;;;;;;8.42;100.00;99308.91;106010;1261;99044;-84
2024/02/06 10:49:26;;;;;;;13.20;7.60;;;;;;;8.43;100.00;99310.23;106143;1260;96614;-84
2024/02/06 10:52:12;;;;;;;16.30;8.80;;;;;;;8.43;100.00;99305.60;106482;1260;96582;-85
2024/02/06 10:54:58;;;;;;;18.80;9.70;;;;;;;8.43;100.00;99298.25;105924;1260;100652;-83
2024/02/06 10:57:47;;;;;;;13.60;10.00;;;;;;;8.43;100.00;99297.84;105779;1267;99166;-85
2024/02/06 11:00:34;;;;;;;13.10;9.50;;;;;;;8.42;100.00;99296.15;106194;1268;98739;-85
2024/02/06 11:03:21;;;;;;;14.70;8.50;;;;;;;8.43;100.00;99294.39;106323;1260;96490;-85
2024/02/06 11:06:23;;;;;;;12.30;9.70;;;;;;;8.44;100.00;99295.13;107598;1260;95841;-84
2024/02/06 11:09:14;;;;;;;18.50;11.40;;;;;;;8.45;100.00;99288.77;105827;1264;100124;-84
2024/02/06 11:12:01;;;;;;;15.10;9.10;;;;;;;8.45;100.00;99294.97;105975;1264;99341;-85
2024/02/06 11:14:48;;;;;;;12.70;7.60;;;;;;;8.45;100.00;99294.64;105982;1260;97822;-81
2024/02/06 11:17:35;;;;;;;9.20;6.40;;;;;;;8.46;100.00;99290.61;106161;1264;97242;-84
2024/02/06 11:20:27;;;;;;;16.00;11.40;;;;;;;8.46;100.00;99298.98;105886;1260;96609;-86
2024/02/06 11:23:18;;;;;;;11.70;6.80;;;;;;;8.47;100.00;99293.20;105621;1260;101452;-86
2024/02/06 11:26:06;;;;;;;12.20;7.00;;;;;;;8.47;100.00;99294.80;105847;1266;98984;-89
2024/02/06 11:28:53;;;;;;;10.30;6.90;;;;;;;8.47;100.00;99295.91;105920;1263;99452;-87
2024/02/06 11:31:39;;;;;;;8.30;5.50;;;;;;;8.48;100.00;99296.77;106190;1267;96604;-89
2024/02/06 11:34:26;;;;;;;10.10;4.90;;;;;;;8.49;100.00;99301.98;106408;1260;97214;-89
2024/02/06 11:37:22;;;;;;;10.50;5.90;;;;;;;8.49;100.00;99296.93;106536;1261;100120;-88
2024/02/06 11:40:13;;;;;;;8.00;5.30;;;;;;;8.51;100.00;99303.34;106265;1260;101291;-87
2024/02/06 11:43:06;;;;;;;8.30;5.40;;;;;;;8.52;100.00;99310.23;105827;1260;108799;-85
2024/02/06 11:45:59;;;;;;;9.50;5.30;;;;;;;8.53;100.00;99305.34;105618;1261;96804;-85
2024/02/06 11:48:47;;;;;;;13.40;7.00;;;;;;;8.54;100.00;99303.18;105861;1262;97153;-83
2024/02/06 11:51:33;;;;;;;18.40;10.10;;;;;;;8.56;100.00;99305.84;105722;1261;100070;-84
2024/02/06 11:54:19;;;;;;;12.70;8.40;;;;;;;8.59;100.00;99293.94;105720;1267;100525;-79
2024/02/06 11:57:07;;;;;;;10.30;6.30;;;;;;;8.60;100.00;99302.70;105814;1264;98981;-82
2024/02/06 11:59:54;;;;;;;8.80;6.60;;;;;;;8.61;100.00;99296.48;105537;1267;96669;-80
2024/02/06 12:02:41;;;;;;;10.10;7.90;;;;;;;8.62;100.00;99292.91;106063;1264;95945;-83
2024/02/06 12:05:38;;;;;;;10.90;8.10;;;;;;;8.63;100.00;99288.55;105866;1260;100150;-82
2024/02/06 12:08:27;;;;;;;15.10;8.10;;;;;;;8.63;100.00;99280.59;105990;1265;100494;-79
2024/02/06 12:11:14;;;;;;;11.60;7.30;;;;;;;8.62;100.00;99292.20;105401;1261;98462;-80
2024/02/06 12:14:00;;;;;;;7.70;5.80;;;;;;;8.62;100.00;99281.58;105536;1264;96628;-88
2024/02/06 12:16:47;;;;;;;10.90;6.80;;;;;;;8.62;100.00;99281.20;105922;1260;97101;-89
2024/02/06 12:19:33;;;;;;;9.30;6.00;;;;;;;8.63;100.00;99287.11;106255;1261;100089;-83
2024/02/06 12:22:20;;;;;;;8.90;6.30;;;;;;;8.63;100.00;99289.46;105815;1261;99204;-85
2024/02/06 12:25:13;;;;;;;11.30;6.00;;;;;;;8.62;100.00;99285.48;105915;1261;98834;-85
2024/02/06 12:28:15;;;;;;;16.90;10.80;;;;;;;8.61;100.00;99282.36;105829;1267;98335;-83
2024/02/06 12:31:01;;;;;;;11.60;6.20;;;;;;;8.60;100.00;99282.56;105872;1260;96606;-83
2024/02/06 12:33:47;;;;;;;7.40;5.20;;;;;;;8.59;100.00;99278.95;105546;1270;101472;-83
2024/02/06 12:36:34;;;;;;;12.10;6.70;;;;;;;8.59;100.00;99264.33;105814;1260;99268;-85
2024/02/06 12:39:21;;;;;;;7.20;4.90;;;;;;;8.60;100.00;99264.54;106310;1260;97827;-87
2024/02/06 12:42:08;;;;;;;12.30;5.90;;;;;;;8.62;100.00;99262.02;106161;1263;96661;-86